Time;durP1;ratioP1;P1;durP2;ratioP2;P2;SDS_P1;SDS_P2;PMS_P1;PMS_P2;Temp;Humidity;BMP_temperature;BMP_pressure;BME280_temperature;BME280_humidity;BME280_pressure;Samples;Min_cycle;Max_cycle;Signal;HPM_P1;HPM_P2
2022/10/03 00:00:18;;;;;;;2.00;1.90;;;;;;;;;;5075838;27;20791;-70
2022/10/03 00:03:03;;;;;;;2.67;2.50;;;;;;;;;;5077162;27;20205;-71
2022/10/03 00:05:36;;;;;;;2.38;2.10;;;;;;;;;;5074764;27;20224;-70
2022/10/03 00:08:08;;;;;;;2.35;2.25;;;;;;;;;;5073487;27;20354;-70
2022/10/03 00:10:38;;;;;;;2.10;1.90;;;;;;;;;;5074964;27;20220;-70
2022/10/03 00:13:14;;;;;;;2.22;1.83;;;;;;;;;;5071788;27;20212;-70
2022/10/03 00:15:44;;;;;;;2.63;2.30;;;;;;;;;;5073519;27;20670;-70
2022/10/03 00:18:18;;;;;;;3.13;2.80;;;;;;;;;;5070073;27;20196;-70
2022/10/03 00:21:00;;;;;;;2.80;2.53;;;;;;;;;;5073951;27;20206;-69
2022/10/03 00:23:34;;;;;;;3.17;2.20;;;;;;;;;;5068626;27;20192;-71
2022/10/03 00:26:25;;;;;;;4.05;2.92;;;;;;;;;;5073561;27;20205;-70
2022/10/03 00:28:58;;;;;;;3.00;2.70;;;;;;;;;;5071250;27;20669;-70
2022/10/03 00:31:25;;;;;;;2.53;2.33;;;;;;;;;;5071334;27;20205;-70
2022/10/03 00:33:57;;;;;;;2.47;2.28;;;;;;;;;;5068673;28;20500;-70
2022/10/03 00:36:30;;;;;;;5.70;2.75;;;;;;;;;;5070346;27;20208;-70
2022/10/03 00:39:11;;;;;;;3.03;2.70;;;;;;;;;;5069359;27;20221;-71
2022/10/03 00:41:56;;;;;;;3.45;3.22;;;;;;;;;;5068942;28;20201;-70
2022/10/03 00:44:36;;;;;;;3.17;2.97;;;;;;;;;;5067515;27;20241;-71
2022/10/03 00:47:20;;;;;;;4.88;3.40;;;;;;;;;;5067880;27;20894;-71
2022/10/03 00:50:01;;;;;;;3.10;2.90;;;;;;;;;;5065415;27;20205;-71
2022/10/03 00:52:42;;;;;;;3.88;2.95;;;;;;;;;;5069687;27;20349;-71
2022/10/03 00:55:16;;;;;;;5.00;4.60;;;;;;;;;;5067401;27;20208;-71
2022/10/03 00:57:50;;;;;;;5.03;4.45;;;;;;;;;;5065768;27;20201;-70
2022/10/03 01:00:19;;;;;;;3.80;3.22;;;;;;;;;;5066890;28;20260;-73
2022/10/03 01:02:54;;;;;;;6.25;4.78;;;;;;;;;;5068257;27;20197;-72
2022/10/03 01:05:26;;;;;;;4.88;4.45;;;;;;;;;;5067428;27;20201;-70
2022/10/03 01:08:01;;;;;;;4.28;3.45;;;;;;;;;;5066167;27;20236;-71
2022/10/03 01:10:32;;;;;;;3.17;2.58;;;;;;;;;;5068091;28;21019;-70
2022/10/03 01:13:10;;;;;;;2.70;2.50;;;;;;;;;;5066869;27;20205;-70
2022/10/03 01:15:41;;;;;;;4.80;4.40;;;;;;;;;;5067103;27;20270;-70
2022/10/03 01:18:15;;;;;;;3.65;3.35;;;;;;;;;;5066758;27;20757;-70
2022/10/03 01:20:50;;;;;;;4.68;3.55;;;;;;;;;;5066202;27;20260;-70
2022/10/03 01:23:33;;;;;;;3.25;2.90;;;;;;;;;;5067377;27;21200;-71
2022/10/03 01:26:07;;;;;;;3.40;3.10;;;;;;;;;;5069282;28;20205;-71
2022/10/03 01:31:28;;;;;;;5.13;2.30;;;;;;;;;;5065562;28;20891;-72
2022/10/03 01:33:57;;;;;;;2.40;2.25;;;;;;;;;;5065252;27;20216;-72
2022/10/03 01:36:28;;;;;;;3.50;2.50;;;;;;;;;;5066224;27;20208;-71
2022/10/03 01:38:57;;;;;;;4.90;2.83;;;;;;;;;;5064531;27;20252;-71
2022/10/03 01:41:28;;;;;;;2.45;2.30;;;;;;;;;;5066572;27;20205;-71
2022/10/03 01:43:59;;;;;;;3.05;2.20;;;;;;;;;;5066355;27;20205;-71
2022/10/03 01:46:33;;;;;;;2.25;2.13;;;;;;;;;;5068035;28;20229;-71
2022/10/03 01:49:06;;;;;;;2.63;2.42;;;;;;;;;;5067060;27;20237;-72
2022/10/03 01:51:34;;;;;;;2.67;2.50;;;;;;;;;;5067142;27;20284;-72
2022/10/03 01:54:06;;;;;;;2.38;2.20;;;;;;;;;;5067321;27;20208;-72
2022/10/03 01:56:35;;;;;;;2.38;2.28;;;;;;;;;;5067867;28;20211;-71
2022/10/03 01:59:06;;;;;;;2.45;2.25;;;;;;;;;;5067954;27;20201;-71
2022/10/03 02:01:36;;;;;;;4.07;2.78;;;;;;;;;;5067121;27;20278;-71
2022/10/03 02:04:06;;;;;;;4.57;2.40;;;;;;;;;;5065118;28;20310;-72
2022/10/03 02:06:41;;;;;;;3.30;3.13;;;;;;;;;;5062209;28;20278;-71
2022/10/03 02:09:11;;;;;;;4.70;2.50;;;;;;;;;;5064376;27;20200;-71
2022/10/03 02:11:39;;;;;;;5.35;2.35;;;;;;;;;;5063624;28;20209;-72
2022/10/03 02:14:14;;;;;;;2.83;2.50;;;;;;;;;;5064349;27;20201;-71
2022/10/03 02:16:43;;;;;;;2.53;2.33;;;;;;;;;;5065338;27;20851;-71
2022/10/03 02:19:13;;;;;;;2.47;2.28;;;;;;;;;;5064321;28;20735;-72
2022/10/03 02:21:46;;;;;;;3.70;2.63;;;;;;;;;;5065096;27;20197;-71
2022/10/03 02:24:22;;;;;;;2.17;1.98;;;;;;;;;;5066267;27;20769;-71
2022/10/03 02:27:03;;;;;;;2.70;2.50;;;;;;;;;;5065118;28;21133;-71
2022/10/03 02:29:54;;;;;;;2.70;2.50;;;;;;;;;;5056860;27;20699;-72
2022/10/03 02:32:36;;;;;;;6.85;3.22;;;;;;;;;;5051621;28;20213;-71
2022/10/03 02:35:13;;;;;;;3.20;2.67;;;;;;;;;;5045702;27;20629;-71
2022/10/03 02:37:59;;;;;;;3.53;3.33;;;;;;;;;;5063986;28;20287;-71
2022/10/03 02:40:35;;;;;;;3.63;3.20;;;;;;;;;;5064586;28;20252;-71
2022/10/03 02:43:31;;;;;;;3.00;2.90;;;;;;;;;;5063341;28;20274;-71
2022/10/03 02:46:31;;;;;;;2.78;2.45;;;;;;;;;;5064381;28;20212;-70
2022/10/03 02:49:04;;;;;;;5.47;3.05;;;;;;;;;;5015399;28;20230;-70
2022/10/03 02:51:43;;;;;;;9.57;3.17;;;;;;;;;;5018079;28;20206;-70
2022/10/03 02:54:17;;;;;;;4.00;2.20;;;;;;;;;;5041783;27;20690;-72
2022/10/03 02:56:52;;;;;;;5.20;2.75;;;;;;;;;;5066853;27;20204;-71
2022/10/03 02:59:32;;;;;;;3.85;2.92;;;;;;;;;;5063011;28;20204;-71
2022/10/03 03:02:14;;;;;;;3.58;2.30;;;;;;;;;;5064020;28;20209;-71
2022/10/03 03:05:01;;;;;;;4.10;2.53;;;;;;;;;;5064370;28;20205;-71
2022/10/03 03:07:46;;;;;;;4.97;2.47;;;;;;;;;;5067408;27;20702;-70
2022/10/03 03:10:26;;;;;;;11.60;2.88;;;;;;;;;;5068021;28;20188;-69
2022/10/03 03:13:07;;;;;;;2.85;2.60;;;;;;;;;;5064495;28;20255;-70
2022/10/03 03:16:04;;;;;;;3.72;2.83;;;;;;;;;;5064710;28;20228;-70
2022/10/03 03:18:34;;;;;;;4.05;2.80;;;;;;;;;;5016431;28;20211;-70
2022/10/03 03:21:24;;;;;;;4.63;2.63;;;;;;;;;;5054905;28;20229;-69
2022/10/03 03:24:02;;;;;;;3.85;2.50;;;;;;;;;;5050239;28;20212;-69
2022/10/03 03:26:36;;;;;;;9.82;2.92;;;;;;;;;;5067079;28;20228;-71
2022/10/03 03:29:09;;;;;;;3.58;2.30;;;;;;;;;;5065324;28;20275;-70
2022/10/03 03:31:37;;;;;;;3.30;3.00;;;;;;;;;;5069069;28;20219;-70
2022/10/03 03:34:09;;;;;;;4.05;3.42;;;;;;;;;;5064646;28;20201;-72
2022/10/03 03:36:40;;;;;;;7.38;2.70;;;;;;;;;;5064780;28;21414;-71
2022/10/03 03:39:17;;;;;;;2.42;2.25;;;;;;;;;;5068542;28;20301;-71
2022/10/03 03:41:50;;;;;;;5.70;2.42;;;;;;;;;;5072063;28;20227;-72
2022/10/03 03:44:28;;;;;;;5.88;2.63;;;;;;;;;;5073923;28;20241;-72
2022/10/03 03:47:03;;;;;;;10.00;6.25;;;;;;;;;;5069765;28;20292;-70
2022/10/03 03:49:41;;;;;;;21.85;13.32;;;;;;;;;;5055191;28;20229;-70
2022/10/03 03:52:18;;;;;;;22.15;11.73;;;;;;;;;;5063093;28;20209;-70
2022/10/03 03:55:13;;;;;;;9.60;7.85;;;;;;;;;;5071092;28;20205;-70
2022/10/03 03:57:46;;;;;;;11.23;5.15;;;;;;;;;;5068662;28;20277;-70
2022/10/03 04:00:14;;;;;;;7.53;4.25;;;;;;;;;;5066631;28;20229;-71
2022/10/03 04:03:07;;;;;;;10.88;3.85;;;;;;;;;;5063207;28;20211;-70
2022/10/03 04:05:43;;;;;;;3.80;3.42;;;;;;;;;;5061858;28;20237;-70
2022/10/03 04:08:16;;;;;;;13.18;7.53;;;;;;;;;;5047198;28;20206;-72
2022/10/03 04:10:53;;;;;;;31.67;13.52;;;;;;;;;;5058066;28;20204;-69
2022/10/03 04:13:35;;;;;;;12.43;6.40;;;;;;;;;;5048228;28;20205;-70
2022/10/03 04:18:56;;;;;;;3.63;3.40;;;;;;;;;;5054744;28;21649;-69
2022/10/03 04:19:10;;;;;;;3.65;3.33;;;;;;;;;;5044159;28;20206;-70
2022/10/03 04:21:51;;;;;;;3.55;3.22;;;;;;;;;;5057210;28;20688;-71
2022/10/03 04:24:24;;;;;;;4.50;3.33;;;;;;;;;;5051540;28;20206;-70
2022/10/03 04:27:01;;;;;;;5.00;4.05;;;;;;;;;;5054720;28;20213;-70
2022/10/03 04:29:34;;;;;;;18.17;10.52;;;;;;;;;;5054009;28;20595;-71
2022/10/03 04:32:07;;;;;;;47.67;28.30;;;;;;;;;;5053432;28;20205;-70
2022/10/03 04:34:40;;;;;;;7.30;6.65;;;;;;;;;;5052559;28;20258;-72
2022/10/03 04:37:23;;;;;;;6.32;3.78;;;;;;;;;;5052142;28;20210;-72
2022/10/03 04:39:57;;;;;;;8.88;4.40;;;;;;;;;;5054585;28;20738;-72
2022/10/03 04:42:39;;;;;;;9.07;4.15;;;;;;;;;;5054360;28;20204;-72
2022/10/03 04:45:14;;;;;;;4.55;3.97;;;;;;;;;;5053583;28;20219;-72
2022/10/03 04:47:44;;;;;;;9.73;4.00;;;;;;;;;;5054070;28;20204;-70
2022/10/03 04:50:18;;;;;;;12.10;3.92;;;;;;;;;;5051684;28;20260;-71
2022/10/03 04:52:49;;;;;;;10.13;4.43;;;;;;;;;;5050682;28;20267;-71
2022/10/03 04:55:21;;;;;;;23.17;5.40;;;;;;;;;;5054208;28;20209;-71
2022/10/03 04:57:52;;;;;;;5.90;4.45;;;;;;;;;;5049685;28;20695;-70
2022/10/03 05:00:23;;;;;;;15.98;4.68;;;;;;;;;;5050462;28;20246;-70
2022/10/03 05:02:53;;;;;;;14.25;4.32;;;;;;;;;;5048023;28;20205;-70
2022/10/03 05:05:31;;;;;;;14.40;4.32;;;;;;;;;;5050213;28;20209;-72
2022/10/03 05:08:03;;;;;;;14.48;3.50;;;;;;;;;;5051818;28;20286;-72
2022/10/03 05:10:37;;;;;;;8.65;3.97;;;;;;;;;;5055121;28;20285;-70
2022/10/03 05:13:10;;;;;;;8.48;3.22;;;;;;;;;;5057258;28;21244;-72
2022/10/03 05:15:42;;;;;;;6.82;3.25;;;;;;;;;;5052882;28;20734;-69
2022/10/03 05:18:14;;;;;;;10.48;3.30;;;;;;;;;;5054520;28;20277;-70
2022/10/03 05:20:54;;;;;;;6.00;3.67;;;;;;;;;;5054619;28;20233;-71
2022/10/03 05:23:28;;;;;;;7.05;3.58;;;;;;;;;;5052418;28;20598;-70
2022/10/03 05:25:58;;;;;;;22.27;5.10;;;;;;;;;;5054854;28;20205;-70
2022/10/03 05:28:32;;;;;;;13.73;3.75;;;;;;;;;;5052837;28;20259;-71
2022/10/03 05:31:03;;;;;;;11.65;3.40;;;;;;;;;;5055037;28;20683;-73
2022/10/03 05:33:34;;;;;;;10.68;5.43;;;;;;;;;;5049984;28;20224;-71
2022/10/03 05:36:15;;;;;;;12.32;4.97;;;;;;;;;;5055124;28;20849;-72
2022/10/03 05:38:52;;;;;;;7.32;4.50;;;;;;;;;;5056727;28;20752;-71
2022/10/03 05:41:21;;;;;;;11.95;4.65;;;;;;;;;;5050670;28;20333;-70
2022/10/03 05:43:57;;;;;;;6.38;3.65;;;;;;;;;;5051961;28;20230;-70
2022/10/03 05:46:32;;;;;;;9.95;3.67;;;;;;;;;;5052429;28;20227;-71
2022/10/03 05:49:04;;;;;;;6.95;3.92;;;;;;;;;;5050385;28;20221;-71
2022/10/03 05:51:52;;;;;;;13.75;3.88;;;;;;;;;;5052038;28;20267;-71
2022/10/03 05:54:38;;;;;;;6.43;4.32;;;;;;;;;;5049087;28;20209;-71
2022/10/03 05:57:22;;;;;;;7.15;3.75;;;;;;;;;;5051995;28;20233;-70
2022/10/03 05:59:59;;;;;;;8.50;4.43;;;;;;;;;;5052089;28;20198;-70
2022/10/03 06:02:52;;;;;;;9.88;4.63;;;;;;;;;;5054410;28;20229;-72
2022/10/03 06:05:30;;;;;;;11.88;5.55;;;;;;;;;;5001028;28;20229;-71
2022/10/03 06:08:16;;;;;;;10.30;5.57;;;;;;;;;;5047142;28;20245;-71
2022/10/03 06:10:45;;;;;;;10.30;5.95;;;;;;;;;;5047903;28;20365;-72
2022/10/03 06:13:15;;;;;;;13.27;5.30;;;;;;;;;;5048778;28;22036;-70
2022/10/03 06:15:53;;;;;;;13.93;5.95;;;;;;;;;;5046718;28;20206;-70
2022/10/03 06:18:38;;;;;;;13.32;5.60;;;;;;;;;;5047106;28;20201;-70
2022/10/03 06:21:22;;;;;;;9.65;5.82;;;;;;;;;;5046281;28;20333;-70
2022/10/03 06:24:13;;;;;;;20.85;4.90;;;;;;;;;;5047395;28;20349;-70
2022/10/03 06:26:55;;;;;;;7.35;4.30;;;;;;;;;;5045786;28;20758;-71
2022/10/03 06:29:39;;;;;;;11.45;4.30;;;;;;;;;;5047947;28;20212;-72
2022/10/03 06:32:25;;;;;;;10.13;5.18;;;;;;;;;;5037389;28;20201;-71
2022/10/03 06:35:03;;;;;;;5.78;3.70;;;;;;;;;;5046120;28;20206;-70
2022/10/03 06:37:43;;;;;;;11.40;3.78;;;;;;;;;;5046053;28;20639;-72
2022/10/03 06:40:25;;;;;;;10.00;3.95;;;;;;;;;;5046051;28;20239;-71
2022/10/03 06:42:55;;;;;;;10.68;3.28;;;;;;;;;;5014821;28;20221;-71
2022/10/03 06:45:29;;;;;;;10.88;4.13;;;;;;;;;;5046557;28;20209;-73
2022/10/03 06:48:05;;;;;;;7.55;3.90;;;;;;;;;;5044510;28;20566;-70
2022/10/03 06:50:42;;;;;;;14.73;5.40;;;;;;;;;;5046381;28;20205;-70
2022/10/03 06:53:19;;;;;;;8.18;5.13;;;;;;;;;;5045920;28;20725;-70
2022/10/03 06:56:04;;;;;;;7.03;4.78;;;;;;;;;;5046485;28;20270;-70
2022/10/03 06:58:43;;;;;;;5.35;4.15;;;;;;;;;;5047520;28;20221;-71
2022/10/03 07:01:24;;;;;;;10.65;4.63;;;;;;;;;;5044606;28;20506;-70
2022/10/03 07:04:02;;;;;;;12.38;5.60;;;;;;;;;;5045966;28;20201;-70
2022/10/03 07:06:44;;;;;;;8.65;5.32;;;;;;;;;;5041409;28;20233;-70
2022/10/03 07:09:26;;;;;;;11.80;5.35;;;;;;;;;;5042222;28;20339;-70
2022/10/03 07:12:05;;;;;;;10.63;5.60;;;;;;;;;;5043165;28;21163;-71
2022/10/03 07:15:04;;;;;;;11.45;5.72;;;;;;;;;;5045446;28;20697;-70
2022/10/03 07:17:38;;;;;;;11.82;5.72;;;;;;;;;;4982637;28;20208;-71
2022/10/03 07:20:18;;;;;;;7.35;5.22;;;;;;;;;;4982708;28;20285;-71
2022/10/03 07:23:05;;;;;;;16.35;6.07;;;;;;;;;;5015526;28;20251;-71
2022/10/03 07:25:46;;;;;;;12.50;6.38;;;;;;;;;;5006328;28;20201;-71
2022/10/03 07:28:37;;;;;;;15.35;5.88;;;;;;;;;;5039855;28;20209;-72
2022/10/03 07:31:08;;;;;;;16.52;5.88;;;;;;;;;;4970068;28;20220;-71
2022/10/03 07:33:42;;;;;;;12.98;5.50;;;;;;;;;;5041728;28;20204;-71
2022/10/03 07:39:37;;;;;;;8.48;6.07;;;;;;;;;;4983313;28;20203;-71
2022/10/03 07:42:08;;;;;;;7.55;5.68;;;;;;;;;;4983103;28;20410;-71
2022/10/03 07:44:53;;;;;;;14.20;6.85;;;;;;;;;;5021778;28;20202;-71
2022/10/03 07:47:37;;;;;;;7.03;4.32;;;;;;;;;;5049670;28;20892;-71
2022/10/03 07:50:18;;;;;;;13.75;5.82;;;;;;;;;;5051945;28;20768;-71
2022/10/03 07:52:59;;;;;;;14.70;5.97;;;;;;;;;;5051245;28;20664;-72
2022/10/03 07:55:41;;;;;;;10.93;9.75;;;;;;;;;;5053190;28;20251;-72
2022/10/03 07:58:25;;;;;;;29.55;20.02;;;;;;;;;;5038939;28;20206;-71
2022/10/03 08:01:03;;;;;;;37.53;21.00;;;;;;;;;;5053192;28;20702;-72
2022/10/03 08:03:46;;;;;;;28.88;23.17;;;;;;;;;;5053322;28;20236;-72
2022/10/03 08:06:17;;;;;;;26.33;23.08;;;;;;;;;;5050060;28;21214;-71
2022/10/03 08:09:00;;;;;;;24.00;21.48;;;;;;;;;;5050728;28;20318;-72
2022/10/03 08:11:32;;;;;;;42.28;28.00;;;;;;;;;;5051157;28;20209;-69
2022/10/03 08:14:06;;;;;;;24.17;17.40;;;;;;;;;;5051303;28;20206;-71
2022/10/03 08:16:42;;;;;;;15.07;10.57;;;;;;;;;;5049197;28;21872;-70
2022/10/03 08:19:17;;;;;;;8.75;5.57;;;;;;;;;;5050555;28;20588;-71
2022/10/03 08:21:58;;;;;;;3.83;3.40;;;;;;;;;;5051145;28;20239;-72
2022/10/03 08:24:37;;;;;;;5.20;3.50;;;;;;;;;;5051991;28;20229;-70
2022/10/03 08:27:12;;;;;;;2.75;2.38;;;;;;;;;;5051048;28;20202;-71
2022/10/03 08:29:57;;;;;;;6.25;3.30;;;;;;;;;;5049536;28;20271;-70
2022/10/03 08:32:41;;;;;;;7.53;2.42;;;;;;;;;;5049790;28;20721;-71
2022/10/03 08:35:25;;;;;;;2.53;2.33;;;;;;;;;;5051247;28;20201;-71
2022/10/03 08:38:02;;;;;;;5.05;2.97;;;;;;;;;;5049527;28;20202;-70
2022/10/03 08:40:59;;;;;;;6.25;3.13;;;;;;;;;;5050811;28;20216;-71
2022/10/03 08:43:43;;;;;;;4.75;3.20;;;;;;;;;;5051193;28;20201;-71
2022/10/03 08:46:25;;;;;;;2.38;2.17;;;;;;;;;;5010315;28;20205;-71
2022/10/03 08:49:00;;;;;;;3.05;2.75;;;;;;;;;;5049112;28;20210;-72
2022/10/03 08:51:48;;;;;;;2.00;1.90;;;;;;;;;;5050694;28;20270;-71
2022/10/03 08:54:32;;;;;;;3.38;3.08;;;;;;;;;;5050598;28;20508;-71
2022/10/03 08:57:07;;;;;;;2.50;2.00;;;;;;;;;;5050568;28;20210;-71
2022/10/03 08:59:57;;;;;;;3.55;2.47;;;;;;;;;;5048682;28;20216;-72
2022/10/03 09:02:41;;;;;;;2.72;2.53;;;;;;;;;;5034052;28;20252;-71
2022/10/03 09:05:32;;;;;;;2.53;1.95;;;;;;;;;;5049561;28;20704;-72
2022/10/03 09:08:25;;;;;;;8.15;4.20;;;;;;;;;;5046222;28;20233;-71
2022/10/03 09:11:12;;;;;;;5.57;3.00;;;;;;;;;;5049025;28;20259;-71
2022/10/03 09:14:07;;;;;;;4.97;4.43;;;;;;;;;;5013273;28;20300;-71
2022/10/03 09:16:54;;;;;;;4.32;2.88;;;;;;;;;;5046457;28;20537;-71
2022/10/03 09:19:35;;;;;;;5.32;4.82;;;;;;;;;;5044172;28;20777;-71
2022/10/03 09:22:11;;;;;;;5.50;2.95;;;;;;;;;;5047058;28;20939;-74
2022/10/03 09:24:56;;;;;;;2.95;2.75;;;;;;;;;;5046898;28;20683;-71
2022/10/03 09:27:44;;;;;;;3.35;2.25;;;;;;;;;;5047834;28;20861;-70
2022/10/03 09:30:24;;;;;;;2.67;1.95;;;;;;;;;;5043492;28;20259;-72
2022/10/03 09:33:06;;;;;;;1.67;1.58;;;;;;;;;;5046391;28;20205;-71
2022/10/03 09:35:44;;;;;;;3.20;2.05;;;;;;;;;;5049299;28;20263;-70
2022/10/03 09:38:29;;;;;;;4.68;1.90;;;;;;;;;;5046577;28;21126;-71
2022/10/03 09:41:10;;;;;;;2.58;2.40;;;;;;;;;;5048694;28;20205;-70
2022/10/03 09:43:56;;;;;;;6.30;1.85;;;;;;;;;;5048243;28;20205;-70
2022/10/03 09:46:40;;;;;;;2.78;2.53;;;;;;;;;;5047820;28;20267;-70
2022/10/03 09:49:26;;;;;;;2.95;2.60;;;;;;;;;;5047508;28;20233;-70
2022/10/03 09:51:58;;;;;;;7.22;3.03;;;;;;;;;;5048526;28;20864;-71
2022/10/03 09:54:46;;;;;;;4.32;3.00;;;;;;;;;;5047920;28;20197;-70
2022/10/03 09:57:31;;;;;;;8.63;4.50;;;;;;;;;;5048036;28;20233;-71
2022/10/03 10:00:12;;;;;;;2.60;2.40;;;;;;;;;;5035802;28;20213;-71
2022/10/03 10:02:53;;;;;;;2.15;2.05;;;;;;;;;;5032864;28;20609;-72
2022/10/03 10:05:34;;;;;;;2.35;2.20;;;;;;;;;;4989122;28;20233;-72
2022/10/03 10:08:32;;;;;;;1.98;1.77;;;;;;;;;;5064273;27;20224;-71
2022/10/03 10:11:09;;;;;;;3.55;3.22;;;;;;;;;;5064465;27;20213;-70
2022/10/03 10:14:00;;;;;;;4.38;3.97;;;;;;;;;;5062669;28;20583;-70
2022/10/03 10:16:45;;;;;;;2.08;1.95;;;;;;;;;;5065902;27;20205;-72
2022/10/03 10:19:35;;;;;;;1.70;1.58;;;;;;;;;;5066636;27;20205;-70
2022/10/03 10:22:28;;;;;;;1.70;1.60;;;;;;;;;;5066630;27;20800;-71
2022/10/03 10:25:14;;;;;;;1.52;1.50;;;;;;;;;;5067108;28;20233;-72
2022/10/03 10:27:55;;;;;;;1.58;1.45;;;;;;;;;;5063117;27;21200;-71
2022/10/03 10:30:25;;;;;;;1.67;1.58;;;;;;;;;;5045564;27;20650;-71
2022/10/03 10:33:04;;;;;;;2.15;1.45;;;;;;;;;;5062806;27;20197;-71
2022/10/03 10:35:50;;;;;;;2.22;1.27;;;;;;;;;;5064351;27;20205;-70
2022/10/03 10:38:31;;;;;;;1.80;1.70;;;;;;;;;;5065178;27;20762;-70
2022/10/03 10:41:17;;;;;;;1.70;1.60;;;;;;;;;;5069606;27;20210;-70
2022/10/03 10:43:57;;;;;;;2.08;1.15;;;;;;;;;;5065296;28;20726;-70
2022/10/03 10:46:36;;;;;;;1.85;1.40;;;;;;;;;;5066024;27;21506;-70
2022/10/03 10:49:21;;;;;;;3.28;2.38;;;;;;;;;;5062155;28;20257;-70
2022/10/03 10:52:04;;;;;;;4.32;1.98;;;;;;;;;;5065664;28;20345;-71
2022/10/03 10:54:50;;;;;;;2.67;2.42;;;;;;;;;;5064439;28;20209;-71
2022/10/03 10:57:22;;;;;;;3.75;2.85;;;;;;;;;;5063939;28;20205;-71
2022/10/03 11:00:03;;;;;;;9.43;6.10;;;;;;;;;;5062874;28;20211;-74
2022/10/03 11:02:48;;;;;;;2.67;2.40;;;;;;;;;;5063784;28;20600;-72
2022/10/03 11:05:33;;;;;;;2.17;2.08;;;;;;;;;;5023635;28;20204;-71
2022/10/03 11:08:27;;;;;;;2.00;1.90;;;;;;;;;;5062088;28;20224;-71
2022/10/03 11:11:13;;;;;;;5.35;4.88;;;;;;;;;;5027305;28;20218;-72
2022/10/03 11:13:56;;;;;;;5.53;3.95;;;;;;;;;;5063038;28;21151;-72
2022/10/03 11:16:41;;;;;;;2.10;2.00;;;;;;;;;;5062727;28;20208;-72
2022/10/03 11:19:26;;;;;;;1.90;1.75;;;;;;;;;;5060857;28;20243;-71
2022/10/03 11:22:17;;;;;;;2.17;1.83;;;;;;;;;;5064411;28;20200;-71
2022/10/03 11:25:07;;;;;;;2.13;1.80;;;;;;;;;;5064764;28;20647;-71
2022/10/03 11:27:55;;;;;;;3.17;1.73;;;;;;;;;;5065385;28;20207;-72
2022/10/03 11:30:36;;;;;;;2.08;1.98;;;;;;;;;;5062001;28;20210;-72
2022/10/03 11:33:20;;;;;;;2.53;2.33;;;;;;;;;;5060660;28;20208;-72
2022/10/03 11:36:09;;;;;;;4.40;3.08;;;;;;;;;;5064552;28;20277;-71
2022/10/03 11:38:41;;;;;;;3.30;3.03;;;;;;;;;;5059172;28;20624;-72
2022/10/03 11:41:15;;;;;;;3.15;2.95;;;;;;;;;;5066783;28;20205;-72
2022/10/03 11:43:50;;;;;;;3.33;3.03;;;;;;;;;;5065698;28;20225;-72
2022/10/03 11:46:22;;;;;;;3.20;3.00;;;;;;;;;;5064731;28;20261;-73
2022/10/03 11:48:54;;;;;;;3.67;3.47;;;;;;;;;;5064293;28;20290;-72
2022/10/03 11:51:36;;;;;;;12.73;9.60;;;;;;;;;;5064969;28;20201;-71
2022/10/03 11:54:08;;;;;;;4.97;4.68;;;;;;;;;;5064772;28;21660;-71
2022/10/03 11:56:37;;;;;;;6.57;4.70;;;;;;;;;;5066154;28;20266;-71
2022/10/03 11:59:21;;;;;;;4.72;4.43;;;;;;;;;;5064587;28;20205;-71
2022/10/03 12:01:57;;;;;;;4.82;3.22;;;;;;;;;;5067083;28;20648;-72
2022/10/03 12:04:26;;;;;;;3.15;2.97;;;;;;;;;;5064385;28;20408;-71
2022/10/03 12:10:01;;;;;;;7.00;6.35;;;;;;;;;;5064604;28;20308;-67
2022/10/03 12:12:34;;;;;;;4.15;3.85;;;;;;;;;;5064908;28;20881;-69
2022/10/03 12:15:05;;;;;;;3.92;3.72;;;;;;;;;;5061796;28;20313;-69
2022/10/03 12:17:34;;;;;;;4.05;3.78;;;;;;;;;;5063029;28;20205;-71
2022/10/03 12:20:04;;;;;;;4.43;4.13;;;;;;;;;;5064269;28;20217;-70
2022/10/03 12:22:40;;;;;;;3.38;3.17;;;;;;;;;;5064765;28;20226;-71
2022/10/03 12:25:16;;;;;;;3.15;2.97;;;;;;;;;;5054226;28;20294;-70
2022/10/03 12:27:49;;;;;;;4.88;2.80;;;;;;;;;;5067180;28;20259;-70
2022/10/03 12:30:16;;;;;;;2.80;2.60;;;;;;;;;;5064608;28;20206;-71
2022/10/03 12:32:48;;;;;;;2.78;2.65;;;;;;;;;;5053011;28;20587;-70
2022/10/03 12:35:20;;;;;;;3.00;2.80;;;;;;;;;;5069222;27;20300;-70
2022/10/03 12:37:52;;;;;;;2.80;2.70;;;;;;;;;;5067188;27;20937;-70
2022/10/03 12:40:23;;;;;;;3.28;2.90;;;;;;;;;;5068458;27;20543;-72
2022/10/03 12:43:00;;;;;;;3.53;3.22;;;;;;;;;;5067761;27;20232;-72
2022/10/03 12:45:29;;;;;;;3.28;3.05;;;;;;;;;;5068819;27;20268;-71
2022/10/03 12:48:16;;;;;;;3.42;3.25;;;;;;;;;;5069699;27;20205;-71
2022/10/03 12:50:46;;;;;;;4.63;3.92;;;;;;;;;;5066750;28;22166;-71
2022/10/03 12:53:24;;;;;;;4.20;4.00;;;;;;;;;;5068819;27;20957;-70
2022/10/03 12:56:05;;;;;;;4.32;3.92;;;;;;;;;;5069139;27;20208;-70
2022/10/03 12:58:38;;;;;;;3.47;3.28;;;;;;;;;;5068523;27;20521;-71
2022/10/03 13:01:09;;;;;;;3.92;3.63;;;;;;;;;;5072231;27;20213;-72
2022/10/03 13:03:39;;;;;;;3.17;2.90;;;;;;;;;;5064276;28;20221;-71
2022/10/03 13:06:20;;;;;;;3.50;2.97;;;;;;;;;;5068213;27;20484;-71
2022/10/03 13:08:53;;;;;;;3.22;2.97;;;;;;;;;;5050865;27;20617;-71
2022/10/03 13:11:28;;;;;;;3.33;2.70;;;;;;;;;;5069040;27;20197;-70
2022/10/03 13:14:15;;;;;;;3.33;2.72;;;;;;;;;;5068772;27;20201;-73
2022/10/03 13:16:48;;;;;;;2.70;2.60;;;;;;;;;;5067533;27;20201;-71
2022/10/03 13:19:16;;;;;;;3.25;3.15;;;;;;;;;;5068439;27;20266;-72
2022/10/03 13:21:48;;;;;;;3.10;2.90;;;;;;;;;;5056104;27;20210;-71
2022/10/03 13:24:21;;;;;;;4.80;3.10;;;;;;;;;;5069495;27;20562;-71
2022/10/03 13:26:52;;;;;;;2.88;2.40;;;;;;;;;;5068486;27;20567;-71
2022/10/03 13:29:24;;;;;;;2.30;2.20;;;;;;;;;;5069093;28;20281;-71
2022/10/03 13:32:01;;;;;;;3.63;2.22;;;;;;;;;;5061948;27;20228;-71
2022/10/03 13:34:30;;;;;;;3.83;3.53;;;;;;;;;;5063297;28;20364;-73
2022/10/03 13:36:59;;;;;;;3.28;3.08;;;;;;;;;;5061350;27;20277;-71
2022/10/03 13:39:28;;;;;;;2.75;2.58;;;;;;;;;;5067106;28;20209;-71
2022/10/03 13:42:09;;;;;;;2.70;2.50;;;;;;;;;;5061886;27;20468;-70
2022/10/03 13:44:38;;;;;;;2.63;2.47;;;;;;;;;;5055485;28;20633;-69
2022/10/03 13:47:12;;;;;;;2.50;2.40;;;;;;;;;;5059417;27;20209;-71
2022/10/03 13:49:41;;;;;;;3.88;3.58;;;;;;;;;;5067164;27;20249;-70
2022/10/03 13:52:14;;;;;;;3.60;2.90;;;;;;;;;;5069567;27;20287;-70
2022/10/03 13:54:57;;;;;;;2.58;2.45;;;;;;;;;;5069895;27;20201;-71
2022/10/03 13:57:24;;;;;;;6.45;6.05;;;;;;;;;;5067445;27;20209;-71
2022/10/03 14:00:03;;;;;;;3.50;3.30;;;;;;;;;;5066302;28;20208;-70
2022/10/03 14:02:47;;;;;;;4.07;3.17;;;;;;;;;;5064762;28;20208;-72
2022/10/03 14:05:46;;;;;;;6.00;5.55;;;;;;;;;;5064775;27;20205;-70
2022/10/03 14:08:18;;;;;;;2.88;2.58;;;;;;;;;;4987728;28;20196;-71
2022/10/03 14:10:59;;;;;;;2.72;2.53;;;;;;;;;;4986219;28;20335;-71
2022/10/03 14:13:28;;;;;;;1.95;1.92;;;;;;;;;;5031496;28;20557;-71
2022/10/03 14:15:58;;;;;;;5.07;1.73;;;;;;;;;;5067684;28;20205;-69
2022/10/03 14:18:40;;;;;;;1.60;1.60;;;;;;;;;;5067200;28;20196;-70
2022/10/03 14:21:37;;;;;;;3.22;2.22;;;;;;;;;;5060892;28;20576;-71
2022/10/03 14:24:09;;;;;;;7.50;2.10;;;;;;;;;;5067738;28;22273;-72
2022/10/03 14:26:38;;;;;;;4.15;1.77;;;;;;;;;;5068700;27;20204;-71
2022/10/03 14:29:08;;;;;;;2.88;2.00;;;;;;;;;;5057357;28;20228;-71
2022/10/03 14:31:39;;;;;;;2.75;1.77;;;;;;;;;;5068456;27;20209;-70
2022/10/03 14:34:11;;;;;;;2.88;1.60;;;;;;;;;;5065644;27;20201;-71
2022/10/03 14:36:41;;;;;;;2.85;2.63;;;;;;;;;;5064241;28;20261;-70
2022/10/03 14:39:20;;;;;;;3.33;2.95;;;;;;;;;;5064855;27;20235;-70
2022/10/03 14:41:53;;;;;;;3.88;3.58;;;;;;;;;;5066566;27;20197;-71
2022/10/03 14:44:21;;;;;;;5.38;2.67;;;;;;;;;;5066377;28;21414;-70
2022/10/03 14:46:52;;;;;;;2.67;2.47;;;;;;;;;;5064949;27;20309;-73
2022/10/03 14:49:20;;;;;;;3.00;2.78;;;;;;;;;;5066649;27;20282;-70
2022/10/03 14:51:48;;;;;;;2.80;2.60;;;;;;;;;;5067051;27;20220;-71
2022/10/03 14:54:18;;;;;;;2.22;2.13;;;;;;;;;;5067843;28;20289;-70
2022/10/03 14:56:46;;;;;;;3.22;3.03;;;;;;;;;;5065585;28;20193;-72
2022/10/03 14:59:17;;;;;;;2.83;2.58;;;;;;;;;;5064225;27;20216;-70
2022/10/03 15:01:48;;;;;;;2.30;2.20;;;;;;;;;;5066716;28;20204;-71
2022/10/03 15:04:21;;;;;;;3.40;2.70;;;;;;;;;;5067876;28;20347;-70
2022/10/03 15:06:52;;;;;;;2.67;2.50;;;;;;;;;;5064597;28;20297;-70
2022/10/03 15:09:21;;;;;;;3.15;2.70;;;;;;;;;;5066207;27;20205;-70
2022/10/03 15:11:48;;;;;;;2.78;2.58;;;;;;;;;;5066138;28;20201;-71
2022/10/03 15:14:15;;;;;;;2.47;2.38;;;;;;;;;;5066695;28;20713;-71
2022/10/03 15:16:45;;;;;;;2.97;2.78;;;;;;;;;;5062819;28;20263;-70
2022/10/03 15:19:19;;;;;;;3.03;2.83;;;;;;;;;;5068003;28;20209;-70
2022/10/03 15:21:50;;;;;;;2.70;2.60;;;;;;;;;;5068474;28;20215;-74
2022/10/03 15:24:19;;;;;;;2.70;2.55;;;;;;;;;;5065077;28;20756;-71
2022/10/03 15:26:49;;;;;;;2.65;2.55;;;;;;;;;;5063931;28;20451;-70
2022/10/03 15:29:17;;;;;;;4.55;2.50;;;;;;;;;;5062691;28;20297;-70
2022/10/03 15:31:45;;;;;;;3.75;3.33;;;;;;;;;;5066461;28;20678;-70
2022/10/03 15:34:15;;;;;;;3.17;2.88;;;;;;;;;;5059706;28;20211;-70
2022/10/03 15:36:43;;;;;;;3.13;2.67;;;;;;;;;;5065563;28;20339;-71
2022/10/03 15:39:18;;;;;;;2.20;2.10;;;;;;;;;;5066417;28;20267;-71
2022/10/03 15:41:49;;;;;;;2.75;2.55;;;;;;;;;;5062913;28;20257;-69
2022/10/03 15:44:19;;;;;;;3.95;3.03;;;;;;;;;;5062215;28;20282;-66
2022/10/03 15:46:48;;;;;;;3.35;3.10;;;;;;;;;;5063683;28;20204;-66
2022/10/03 15:49:19;;;;;;;3.13;2.85;;;;;;;;;;5062528;28;20345;-65